sensor_id;sensor_type;location;lat;lon;timestamp;temperature;humidity
63313;DHT22;49442;45.640;13.812;2023-06-14T00:00:12;19.70;99.90
63313;DHT22;49442;45.640;13.812;2023-06-14T00:02:39;19.70;99.90
63313;DHT22;49442;45.640;13.812;2023-06-14T00:05:08;19.60;99.90
63313;DHT22;49442;45.640;13.812;2023-06-14T00:07:38;19.60;99.90
63313;DHT22;49442;45.640;13.812;2023-06-14T00:10:08;19.60;99.90
63313;DHT22;49442;45.640;13.812;2023-06-14T00:12:34;19.60;99.90
63313;DHT22;49442;45.640;13.812;2023-06-14T00:15:00;19.60;99.90
63313;DHT22;49442;45.640;13.812;2023-06-14T00:17:27;19.60;99.90
63313;DHT22;49442;45.640;13.812;2023-06-14T00:19:56;19.60;99.90
63313;DHT22;49442;45.640;13.812;2023-06-14T00:22:23;19.60;99.90
63313;DHT22;49442;45.640;13.812;2023-06-14T00:24:50;19.70;99.90
63313;DHT22;49442;45.640;13.812;2023-06-14T00:27:16;19.60;99.90
63313;DHT22;49442;45.640;13.812;2023-06-14T00:29:42;19.60;99.90
63313;DHT22;49442;45.640;13.812;2023-06-14T00:32:08;19.70;99.90
63313;DHT22;49442;45.640;13.812;2023-06-14T00:34:34;19.70;99.90
63313;DHT22;49442;45.640;13.812;2023-06-14T00:37:00;19.70;99.90
63313;DHT22;49442;45.640;13.812;2023-06-14T00:39:26;19.60;99.90
63313;DHT22;49442;45.640;13.812;2023-06-14T00:41:51;19.70;99.90
63313;DHT22;49442;45.640;13.812;2023-06-14T00:44:17;19.70;99.90
63313;DHT22;49442;45.640;13.812;2023-06-14T00:46:46;19.70;99.90
63313;DHT22;49442;45.640;13.812;2023-06-14T00:49:16;19.70;99.90
63313;DHT22;49442;45.640;13.812;2023-06-14T00:51:43;19.70;99.90
63313;DHT22;49442;45.640;13.812;2023-06-14T00:54:10;19.70;99.90
63313;DHT22;49442;45.640;13.812;2023-06-14T00:56:36;19.70;99.90
63313;DHT22;49442;45.640;13.812;2023-06-14T00:59:02;19.60;99.90
63313;DHT22;49442;45.640;13.812;2023-06-14T01:01:29;19.60;99.90
63313;DHT22;49442;45.640;13.812;2023-06-14T01:03:58;19.60;99.90
63313;DHT22;49442;45.640;13.812;2023-06-14T01:12:00;19.50;99.90
63313;DHT22;49442;45.640;13.812;2023-06-14T01:14:31;19.50;99.90
63313;DHT22;49442;45.640;13.812;2023-06-14T01:16:58;19.50;99.90
63313;DHT22;49442;45.640;13.812;2023-06-14T01:19:26;19.60;99.90
63313;DHT22;49442;45.640;13.812;2023-06-14T01:21:55;19.50;99.90
63313;DHT22;49442;45.640;13.812;2023-06-14T01:24:21;19.50;99.90
63313;DHT22;49442;45.640;13.812;2023-06-14T01:26:52;19.50;99.90
63313;DHT22;49442;45.640;13.812;2023-06-14T01:29:22;19.40;99.90
63313;DHT22;49442;45.640;13.812;2023-06-14T01:31:49;19.40;99.90
63313;DHT22;49442;45.640;13.812;2023-06-14T01:34:16;19.30;99.90
63313;DHT22;49442;45.640;13.812;2023-06-14T01:36:43;19.30;99.90
63313;DHT22;49442;45.640;13.812;2023-06-14T01:39:14;19.40;99.90
63313;DHT22;49442;45.640;13.812;2023-06-14T01:41:41;19.40;99.90
63313;DHT22;49442;45.640;13.812;2023-06-14T01:44:09;19.40;99.90
63313;DHT22;49442;45.640;13.812;2023-06-14T01:46:36;19.40;99.90
63313;DHT22;49442;45.640;13.812;2023-06-14T01:49:02;19.30;99.90
63313;DHT22;49442;45.640;13.812;2023-06-14T01:51:28;19.40;99.90
63313;DHT22;49442;45.640;13.812;2023-06-14T01:53:53;19.40;99.90
63313;DHT22;49442;45.640;13.812;2023-06-14T01:56:19;19.30;99.90
63313;DHT22;49442;45.640;13.812;2023-06-14T01:58:45;19.30;99.90
63313;DHT22;49442;45.640;13.812;2023-06-14T02:01:11;19.40;99.90
63313;DHT22;49442;45.640;13.812;2023-06-14T02:03:38;19.30;99.90
63313;DHT22;49442;45.640;13.812;2023-06-14T02:06:04;19.30;99.90
63313;DHT22;49442;45.640;13.812;2023-06-14T02:08:30;19.30;99.90
63313;DHT22;49442;45.640;13.812;2023-06-14T02:10:55;19.30;99.90
63313;DHT22;49442;45.640;13.812;2023-06-14T02:13:21;19.30;99.90
63313;DHT22;49442;45.640;13.812;2023-06-14T02:15:47;19.40;99.90
63313;DHT22;49442;45.640;13.812;2023-06-14T02:18:16;19.30;99.90
63313;DHT22;49442;45.640;13.812;2023-06-14T02:20:42;19.40;99.90
63313;DHT22;49442;45.640;13.812;2023-06-14T02:23:07;19.30;99.90
63313;DHT22;49442;45.640;13.812;2023-06-14T02:25:33;19.30;99.90
63313;DHT22;49442;45.640;13.812;2023-06-14T02:27:59;19.30;99.90
63313;DHT22;49442;45.640;13.812;2023-06-14T02:30:25;19.40;99.90
63313;DHT22;49442;45.640;13.812;2023-06-14T02:32:51;19.30;99.90
63313;DHT22;49442;45.640;13.812;2023-06-14T02:35:16;19.30;99.90
63313;DHT22;49442;45.640;13.812;2023-06-14T02:37:42;19.30;99.90
63313;DHT22;49442;45.640;13.812;2023-06-14T02:40:08;19.20;99.90
63313;DHT22;49442;45.640;13.812;2023-06-14T02:42:34;19.20;99.90
63313;DHT22;49442;45.640;13.812;2023-06-14T02:45:00;19.30;99.90
63313;DHT22;49442;45.640;13.812;2023-06-14T02:47:27;19.30;99.90
63313;DHT22;49442;45.640;13.812;2023-06-14T02:49:53;19.30;99.90
63313;DHT22;49442;45.640;13.812;2023-06-14T02:52:19;19.30;99.90
63313;DHT22;49442;45.640;13.812;2023-06-14T02:54:45;19.20;99.90
63313;DHT22;49442;45.640;13.812;2023-06-14T02:57:12;19.10;99.90
63313;DHT22;49442;45.640;13.812;2023-06-14T02:59:38;19.20;99.90
63313;DHT22;49442;45.640;13.812;2023-06-14T03:02:04;19.10;99.90
63313;DHT22;49442;45.640;13.812;2023-06-14T03:04:30;19.20;99.90
63313;DHT22;49442;45.640;13.812;2023-06-14T03:07:00;19.20;99.90
63313;DHT22;49442;45.640;13.812;2023-06-14T03:09:28;19.10;99.90
63313;DHT22;49442;45.640;13.812;2023-06-14T03:11:54;19.00;99.90
63313;DHT22;49442;45.640;13.812;2023-06-14T03:14:19;19.00;99.90
63313;DHT22;49442;45.640;13.812;2023-06-14T03:16:46;19.00;99.90
63313;DHT22;49442;45.640;13.812;2023-06-14T03:19:12;19.00;99.90
63313;DHT22;49442;45.640;13.812;2023-06-14T03:21:38;19.00;99.90
63313;DHT22;49442;45.640;13.812;2023-06-14T03:24:08;19.00;99.90
63313;DHT22;49442;45.640;13.812;2023-06-14T03:26:34;19.00;99.90
63313;DHT22;49442;45.640;13.812;2023-06-14T03:29:02;19.10;99.90
63313;DHT22;49442;45.640;13.812;2023-06-14T03:31:29;19.10;99.90
63313;DHT22;49442;45.640;13.812;2023-06-14T03:33:58;19.10;99.90
63313;DHT22;49442;45.640;13.812;2023-06-14T03:36:23;19.20;99.90
63313;DHT22;49442;45.640;13.812;2023-06-14T03:38:50;19.20;99.90
63313;DHT22;49442;45.640;13.812;2023-06-14T03:41:16;19.20;99.90
63313;DHT22;49442;45.640;13.812;2023-06-14T03:43:41;19.20;99.90
63313;DHT22;49442;45.640;13.812;2023-06-14T03:46:07;19.30;99.90
63313;DHT22;49442;45.640;13.812;2023-06-14T03:48:33;19.30;99.90
63313;DHT22;49442;45.640;13.812;2023-06-14T03:50:58;19.40;99.90
63313;DHT22;49442;45.640;13.812;2023-06-14T03:53:24;19.40;99.90
63313;DHT22;49442;45.640;13.812;2023-06-14T03:55:50;19.50;99.90
63313;DHT22;49442;45.640;13.812;2023-06-14T03:58:18;19.50;99.90
63313;DHT22;49442;45.640;13.812;2023-06-14T04:00:43;19.50;99.90
63313;DHT22;49442;45.640;13.812;2023-06-14T04:03:10;19.50;99.90
63313;DHT22;49442;45.640;13.812;2023-06-14T04:05:39;19.50;99.90
63313;DHT22;49442;45.640;13.812;2023-06-14T04:08:08;19.50;99.90
63313;DHT22;49442;45.640;13.812;2023-06-14T04:10:34;19.50;99.90
63313;DHT22;49442;45.640;13.812;2023-06-14T04:13:00;19.50;99.90
63313;DHT22;49442;45.640;13.812;2023-06-14T04:15:26;19.40;99.90
63313;DHT22;49442;45.640;13.812;2023-06-14T04:17:54;19.50;99.90
63313;DHT22;49442;45.640;13.812;2023-06-14T04:20:22;19.40;99.90
63313;DHT22;49442;45.640;13.812;2023-06-14T04:22:50;19.50;99.90
63313;DHT22;49442;45.640;13.812;2023-06-14T04:25:16;19.40;99.90
63313;DHT22;49442;45.640;13.812;2023-06-14T04:27:42;19.50;99.90
63313;DHT22;49442;45.640;13.812;2023-06-14T04:30:09;19.50;99.90
63313;DHT22;49442;45.640;13.812;2023-06-14T04:32:35;19.50;99.90
63313;DHT22;49442;45.640;13.812;2023-06-14T04:35:06;19.50;99.90
63313;DHT22;49442;45.640;13.812;2023-06-14T04:37:32;19.50;99.90
63313;DHT22;49442;45.640;13.812;2023-06-14T04:39:58;19.50;99.90
63313;DHT22;49442;45.640;13.812;2023-06-14T04:42:24;19.50;99.90
63313;DHT22;49442;45.640;13.812;2023-06-14T04:44:56;19.50;99.90
63313;DHT22;49442;45.640;13.812;2023-06-14T04:47:22;19.50;99.90
63313;DHT22;49442;45.640;13.812;2023-06-14T04:49:50;19.50;99.90
63313;DHT22;49442;45.640;13.812;2023-06-14T04:52:19;19.50;99.90
63313;DHT22;49442;45.640;13.812;2023-06-14T04:54:46;19.60;99.90
63313;DHT22;49442;45.640;13.812;2023-06-14T04:57:12;19.60;99.90
63313;DHT22;49442;45.640;13.812;2023-06-14T04:59:43;19.60;99.90
63313;DHT22;49442;45.640;13.812;2023-06-14T05:02:10;19.70;99.90
63313;DHT22;49442;45.640;13.812;2023-06-14T05:04:35;19.70;99.90
63313;DHT22;49442;45.640;13.812;2023-06-14T05:07:08;19.70;99.90
63313;DHT22;49442;45.640;13.812;2023-06-14T05:09:37;19.80;99.90
63313;DHT22;49442;45.640;13.812;2023-06-14T05:12:04;19.80;99.90
63313;DHT22;49442;45.640;13.812;2023-06-14T05:14:29;19.80;99.90
63313;DHT22;49442;45.640;13.812;2023-06-14T05:16:55;19.90;99.90
63313;DHT22;49442;45.640;13.812;2023-06-14T05:19:21;19.90;99.90
63313;DHT22;49442;45.640;13.812;2023-06-14T05:21:47;19.90;99.90
63313;DHT22;49442;45.640;13.812;2023-06-14T05:24:14;20.00;99.90
63313;DHT22;49442;45.640;13.812;2023-06-14T05:26:40;20.00;99.90
63313;DHT22;49442;45.640;13.812;2023-06-14T05:29:06;20.10;99.90
63313;DHT22;49442;45.640;13.812;2023-06-14T05:31:31;20.20;99.90
63313;DHT22;49442;45.640;13.812;2023-06-14T05:33:58;20.20;99.90
63313;DHT22;49442;45.640;13.812;2023-06-14T05:36:23;20.20;99.90
63313;DHT22;49442;45.640;13.812;2023-06-14T05:38:50;20.30;99.90
63313;DHT22;49442;45.640;13.812;2023-06-14T05:41:25;20.30;99.90
63313;DHT22;49442;45.640;13.812;2023-06-14T05:43:52;20.40;99.90
63313;DHT22;49442;45.640;13.812;2023-06-14T05:46:17;20.40;99.90
63313;DHT22;49442;45.640;13.812;2023-06-14T05:48:48;20.30;99.90
63313;DHT22;49442;45.640;13.812;2023-06-14T05:51:14;20.40;99.90
63313;DHT22;49442;45.640;13.812;2023-06-14T05:53:40;20.40;99.90
63313;DHT22;49442;45.640;13.812;2023-06-14T05:56:05;20.40;99.90
63313;DHT22;49442;45.640;13.812;2023-06-14T05:58:31;20.40;99.90
63313;DHT22;49442;45.640;13.812;2023-06-14T06:00:58;20.40;99.90
63313;DHT22;49442;45.640;13.812;2023-06-14T06:03:24;20.40;99.90
63313;DHT22;49442;45.640;13.812;2023-06-14T06:05:50;20.50;99.90
63313;DHT22;49442;45.640;13.812;2023-06-14T06:08:15;20.50;99.90
63313;DHT22;49442;45.640;13.812;2023-06-14T06:10:42;20.50;99.90
63313;DHT22;49442;45.640;13.812;2023-06-14T06:13:09;20.60;99.90
63313;DHT22;49442;45.640;13.812;2023-06-14T06:15:35;20.60;99.90
63313;DHT22;49442;45.640;13.812;2023-06-14T06:18:01;20.60;99.90
63313;DHT22;49442;45.640;13.812;2023-06-14T06:20:27;20.70;99.90
63313;DHT22;49442;45.640;13.812;2023-06-14T06:22:54;20.70;99.90
63313;DHT22;49442;45.640;13.812;2023-06-14T06:25:20;20.70;99.90
63313;DHT22;49442;45.640;13.812;2023-06-14T06:27:47;20.80;99.90
63313;DHT22;49442;45.640;13.812;2023-06-14T06:30:13;20.80;99.90
63313;DHT22;49442;45.640;13.812;2023-06-14T06:32:39;20.80;99.90
63313;DHT22;49442;45.640;13.812;2023-06-14T06:35:05;20.80;99.90
63313;DHT22;49442;45.640;13.812;2023-06-14T06:37:32;20.80;99.90
63313;DHT22;49442;45.640;13.812;2023-06-14T06:39:58;20.90;99.90
63313;DHT22;49442;45.640;13.812;2023-06-14T06:42:24;20.90;99.90
63313;DHT22;49442;45.640;13.812;2023-06-14T06:44:50;20.90;99.90
63313;DHT22;49442;45.640;13.812;2023-06-14T06:47:15;20.90;99.90
63313;DHT22;49442;45.640;13.812;2023-06-14T06:49:41;21.00;99.90
63313;DHT22;49442;45.640;13.812;2023-06-14T06:52:07;21.00;99.90
63313;DHT22;49442;45.640;13.812;2023-06-14T06:54:33;21.10;99.90
63313;DHT22;49442;45.640;13.812;2023-06-14T06:57:00;21.20;99.90
63313;DHT22;49442;45.640;13.812;2023-06-14T06:59:27;21.40;99.90
63313;DHT22;49442;45.640;13.812;2023-06-14T07:01:53;21.50;99.90
63313;DHT22;49442;45.640;13.812;2023-06-14T07:04:18;21.70;99.90
63313;DHT22;49442;45.640;13.812;2023-06-14T07:06:45;21.80;99.90
63313;DHT22;49442;45.640;13.812;2023-06-14T07:09:12;22.10;99.90
63313;DHT22;49442;45.640;13.812;2023-06-14T07:11:40;22.10;99.90
63313;DHT22;49442;45.640;13.812;2023-06-14T07:14:06;22.30;99.90
63313;DHT22;49442;45.640;13.812;2023-06-14T07:16:32;22.30;99.90
63313;DHT22;49442;45.640;13.812;2023-06-14T07:18:58;22.40;99.90
63313;DHT22;49442;45.640;13.812;2023-06-14T07:21:24;22.60;99.90
63313;DHT22;49442;45.640;13.812;2023-06-14T07:23:54;22.70;99.90
63313;DHT22;49442;45.640;13.812;2023-06-14T07:26:20;22.80;99.90
63313;DHT22;49442;45.640;13.812;2023-06-14T07:28:47;22.90;99.90
63313;DHT22;49442;45.640;13.812;2023-06-14T07:31:16;23.00;99.90
63313;DHT22;49442;45.640;13.812;2023-06-14T07:33:42;23.10;99.90
63313;DHT22;49442;45.640;13.812;2023-06-14T07:36:08;23.30;99.90
63313;DHT22;49442;45.640;13.812;2023-06-14T07:38:34;23.30;99.90
63313;DHT22;49442;45.640;13.812;2023-06-14T07:41:00;23.40;99.80
63313;DHT22;49442;45.640;13.812;2023-06-14T07:43:26;23.40;99.80
63313;DHT22;49442;45.640;13.812;2023-06-14T07:45:52;23.50;99.90
63313;DHT22;49442;45.640;13.812;2023-06-14T07:48:18;23.50;99.90
63313;DHT22;49442;45.640;13.812;2023-06-14T07:50:44;23.60;99.90
63313;DHT22;49442;45.640;13.812;2023-06-14T07:53:09;23.60;99.90
63313;DHT22;49442;45.640;13.812;2023-06-14T07:55:35;23.70;99.80
63313;DHT22;49442;45.640;13.812;2023-06-14T07:58:06;23.70;99.90
63313;DHT22;49442;45.640;13.812;2023-06-14T08:00:31;23.60;98.80
63313;DHT22;49442;45.640;13.812;2023-06-14T08:02:57;23.60;99.30
63313;DHT22;49442;45.640;13.812;2023-06-14T08:05:28;23.60;98.70
63313;DHT22;49442;45.640;13.812;2023-06-14T08:07:54;23.50;99.30
63313;DHT22;49442;45.640;13.812;2023-06-14T08:10:21;23.40;99.90
63313;DHT22;49442;45.640;13.812;2023-06-14T08:12:47;23.40;98.10
63313;DHT22;49442;45.640;13.812;2023-06-14T08:15:17;23.40;98.20
63313;DHT22;49442;45.640;13.812;2023-06-14T08:17:45;23.50;99.20
63313;DHT22;49442;45.640;13.812;2023-06-14T08:20:12;23.50;97.90
63313;DHT22;49442;45.640;13.812;2023-06-14T08:22:39;23.60;98.30
63313;DHT22;49442;45.640;13.812;2023-06-14T08:25:08;23.60;98.40
63313;DHT22;49442;45.640;13.812;2023-06-14T08:27:34;23.70;98.70
63313;DHT22;49442;45.640;13.812;2023-06-14T08:30:00;24.00;99.90
63313;DHT22;49442;45.640;13.812;2023-06-14T08:32:25;24.00;99.90
63313;DHT22;49442;45.640;13.812;2023-06-14T08:34:51;24.00;98.40
63313;DHT22;49442;45.640;13.812;2023-06-14T08:37:17;24.00;99.10
63313;DHT22;49442;45.640;13.812;2023-06-14T08:39:42;23.90;99.40
63313;DHT22;49442;45.640;13.812;2023-06-14T08:42:09;23.80;98.50
63313;DHT22;49442;45.640;13.812;2023-06-14T08:44:36;23.90;98.80
63313;DHT22;49442;45.640;13.812;2023-06-14T08:47:01;23.90;97.50
63313;DHT22;49442;45.640;13.812;2023-06-14T08:49:29;24.10;99.10
63313;DHT22;49442;45.640;13.812;2023-06-14T08:52:00;24.10;97.10
63313;DHT22;49442;45.640;13.812;2023-06-14T08:54:30;24.30;98.30
63313;DHT22;49442;45.640;13.812;2023-06-14T08:56:59;24.40;98.20
63313;DHT22;49442;45.640;13.812;2023-06-14T08:59:26;24.40;98.90
63313;DHT22;49442;45.640;13.812;2023-06-14T09:01:52;24.40;99.90
63313;DHT22;49442;45.640;13.812;2023-06-14T09:04:22;24.40;99.90
63313;DHT22;49442;45.640;13.812;2023-06-14T09:06:49;24.50;97.50
63313;DHT22;49442;45.640;13.812;2023-06-14T09:09:21;24.60;98.50
63313;DHT22;49442;45.640;13.812;2023-06-14T09:11:49;24.70;99.90
63313;DHT22;49442;45.640;13.812;2023-06-14T09:14:15;24.90;99.90
63313;DHT22;49442;45.640;13.812;2023-06-14T09:16:41;25.00;97.40
63313;DHT22;49442;45.640;13.812;2023-06-14T09:19:07;25.00;98.10
63313;DHT22;49442;45.640;13.812;2023-06-14T09:21:35;25.00;99.90
63313;DHT22;49442;45.640;13.812;2023-06-14T09:24:02;25.00;99.90
63313;DHT22;49442;45.640;13.812;2023-06-14T09:26:30;25.20;99.90
63313;DHT22;49442;45.640;13.812;2023-06-14T09:28:55;25.20;99.00
63313;DHT22;49442;45.640;13.812;2023-06-14T09:31:21;25.20;98.60
63313;DHT22;49442;45.640;13.812;2023-06-14T09:33:50;25.20;97.70
63313;DHT22;49442;45.640;13.812;2023-06-14T09:36:18;25.20;99.10
63313;DHT22;49442;45.640;13.812;2023-06-14T09:41:32;25.40;99.20
63313;DHT22;49442;45.640;13.812;2023-06-14T09:43:59;25.30;99.30
63313;DHT22;49442;45.640;13.812;2023-06-14T09:46:28;25.40;98.80
63313;DHT22;49442;45.640;13.812;2023-06-14T09:48:57;25.20;97.90
63313;DHT22;49442;45.640;13.812;2023-06-14T09:51:24;25.20;98.20
63313;DHT22;49442;45.640;13.812;2023-06-14T09:53:50;25.20;99.30
63313;DHT22;49442;45.640;13.812;2023-06-14T09:56:28;25.20;99.90
63313;DHT22;49442;45.640;13.812;2023-06-14T09:58:56;25.50;99.90
63313;DHT22;49442;45.640;13.812;2023-06-14T10:01:27;25.50;99.90
63313;DHT22;49442;45.640;13.812;2023-06-14T10:04:05;25.50;98.60
63313;DHT22;49442;45.640;13.812;2023-06-14T10:06:32;25.50;99.90
63313;DHT22;49442;45.640;13.812;2023-06-14T10:09:04;25.60;98.90
63313;DHT22;49442;45.640;13.812;2023-06-14T10:11:31;25.60;99.40
63313;DHT22;49442;45.640;13.812;2023-06-14T10:13:58;25.60;99.90
63313;DHT22;49442;45.640;13.812;2023-06-14T10:22:06;25.90;99.90
63313;DHT22;49442;45.640;13.812;2023-06-14T10:24:44;26.00;99.90
63313;DHT22;49442;45.640;13.812;2023-06-14T10:27:12;25.90;99.60
63313;DHT22;49442;45.640;13.812;2023-06-14T10:32:21;25.80;99.60
63313;DHT22;49442;45.640;13.812;2023-06-14T10:34:56;25.80;99.00
63313;DHT22;49442;45.640;13.812;2023-06-14T10:37:22;25.70;99.80
63313;DHT22;49442;45.640;13.812;2023-06-14T10:39:50;25.60;99.90
63313;DHT22;49442;45.640;13.812;2023-06-14T10:42:16;25.50;99.00
63313;DHT22;49442;45.640;13.812;2023-06-14T10:44:42;25.30;98.80
63313;DHT22;49442;45.640;13.812;2023-06-14T10:47:24;25.30;99.90
63313;DHT22;49442;45.640;13.812;2023-06-14T10:49:55;25.40;99.90
63313;DHT22;49442;45.640;13.812;2023-06-14T10:52:25;25.50;99.90
63313;DHT22;49442;45.640;13.812;2023-06-14T10:57:24;25.30;99.60
63313;DHT22;49442;45.640;13.812;2023-06-14T10:59:51;25.30;99.80
63313;DHT22;49442;45.640;13.812;2023-06-14T11:02:27;25.20;99.90
63313;DHT22;49442;45.640;13.812;2023-06-14T11:05:03;25.20;99.20
63313;DHT22;49442;45.640;13.812;2023-06-14T11:13:03;24.70;99.90
63313;DHT22;49442;45.640;13.812;2023-06-14T11:15:30;24.70;99.90
63313;DHT22;49442;45.640;13.812;2023-06-14T11:17:57;24.50;99.90
63313;DHT22;49442;45.640;13.812;2023-06-14T11:20:27;24.50;99.90
63313;DHT22;49442;45.640;13.812;2023-06-14T11:22:53;24.40;99.90
63313;DHT22;49442;45.640;13.812;2023-06-14T11:25:19;24.40;99.90
63313;DHT22;49442;45.640;13.812;2023-06-14T11:27:46;24.50;99.90
63313;DHT22;49442;45.640;13.812;2023-06-14T11:30:13;24.60;99.90
63313;DHT22;49442;45.640;13.812;2023-06-14T11:32:39;24.60;99.90
63313;DHT22;49442;45.640;13.812;2023-06-14T11:35:05;24.50;99.90
63313;DHT22;49442;45.640;13.812;2023-06-14T11:37:31;24.40;99.90
63313;DHT22;49442;45.640;13.812;2023-06-14T11:40:01;24.40;99.90
63313;DHT22;49442;45.640;13.812;2023-06-14T11:42:29;24.30;99.90
63313;DHT22;49442;45.640;13.812;2023-06-14T11:44:55;24.40;99.90
63313;DHT22;49442;45.640;13.812;2023-06-14T11:47:22;24.50;99.50
63313;DHT22;49442;45.640;13.812;2023-06-14T11:49:48;24.60;99.90
63313;DHT22;49442;45.640;13.812;2023-06-14T11:52:14;24.60;99.80
63313;DHT22;49442;45.640;13.812;2023-06-14T11:54:40;24.70;99.10
63313;DHT22;49442;45.640;13.812;2023-06-14T11:57:07;24.90;99.90
63313;DHT22;49442;45.640;13.812;2023-06-14T11:59:38;25.10;99.80
63313;DHT22;49442;45.640;13.812;2023-06-14T12:02:05;25.20;98.90
63313;DHT22;49442;45.640;13.812;2023-06-14T12:04:32;25.20;98.80
63313;DHT22;49442;45.640;13.812;2023-06-14T12:07:09;25.30;98.90
63313;DHT22;49442;45.640;13.812;2023-06-14T12:09:41;25.40;99.00
63313;DHT22;49442;45.640;13.812;2023-06-14T12:12:08;25.30;97.10
63313;DHT22;49442;45.640;13.812;2023-06-14T12:14:34;25.40;98.80
63313;DHT22;49442;45.640;13.812;2023-06-14T12:17:07;25.40;99.60
63313;DHT22;49442;45.640;13.812;2023-06-14T12:19:33;25.50;98.00
63313;DHT22;49442;45.640;13.812;2023-06-14T12:22:06;25.50;97.60
63313;DHT22;49442;45.640;13.812;2023-06-14T12:24:34;25.60;97.90
63313;DHT22;49442;45.640;13.812;2023-06-14T12:27:00;25.40;97.90
63313;DHT22;49442;45.640;13.812;2023-06-14T12:29:29;25.50;99.60
63313;DHT22;49442;45.640;13.812;2023-06-14T12:31:55;25.50;99.30
63313;DHT22;49442;45.640;13.812;2023-06-14T12:34:23;25.50;99.60
63313;DHT22;49442;45.640;13.812;2023-06-14T12:36:50;25.50;99.90
63313;DHT22;49442;45.640;13.812;2023-06-14T12:39:16;25.40;99.70
63313;DHT22;49442;45.640;13.812;2023-06-14T12:41:42;25.40;99.70
63313;DHT22;49442;45.640;13.812;2023-06-14T12:44:07;25.30;99.80
63313;DHT22;49442;45.640;13.812;2023-06-14T12:46:34;25.40;99.60
63313;DHT22;49442;45.640;13.812;2023-06-14T12:49:01;25.40;98.90
63313;DHT22;49442;45.640;13.812;2023-06-14T12:51:26;25.40;99.90
63313;DHT22;49442;45.640;13.812;2023-06-14T12:53:52;25.40;98.40
63313;DHT22;49442;45.640;13.812;2023-06-14T12:56:18;25.50;99.90
63313;DHT22;49442;45.640;13.812;2023-06-14T12:58:44;25.60;98.50
63313;DHT22;49442;45.640;13.812;2023-06-14T13:01:09;25.80;99.90
63313;DHT22;49442;45.640;13.812;2023-06-14T13:03:35;25.90;99.90
63313;DHT22;49442;45.640;13.812;2023-06-14T13:06:01;26.00;99.90
63313;DHT22;49442;45.640;13.812;2023-06-14T13:08:27;26.10;99.90
63313;DHT22;49442;45.640;13.812;2023-06-14T13:10:53;26.10;98.80
63313;DHT22;49442;45.640;13.812;2023-06-14T13:13:19;26.30;99.60
63313;DHT22;49442;45.640;13.812;2023-06-14T13:15:45;26.20;99.00
63313;DHT22;49442;45.640;13.812;2023-06-14T13:18:12;26.10;98.90
63313;DHT22;49442;45.640;13.812;2023-06-14T13:20:40;25.90;97.50
63313;DHT22;49442;45.640;13.812;2023-06-14T13:23:06;25.80;98.90
63313;DHT22;49442;45.640;13.812;2023-06-14T13:25:37;25.60;98.80
63313;DHT22;49442;45.640;13.812;2023-06-14T13:28:04;25.40;98.40
63313;DHT22;49442;45.640;13.812;2023-06-14T13:30:30;25.40;97.90
63313;DHT22;49442;45.640;13.812;2023-06-14T13:32:57;25.20;99.90
63313;DHT22;49442;45.640;13.812;2023-06-14T13:35:23;25.10;99.90
63313;DHT22;49442;45.640;13.812;2023-06-14T13:37:49;25.10;99.90
63313;DHT22;49442;45.640;13.812;2023-06-14T13:40:15;25.10;99.90
63313;DHT22;49442;45.640;13.812;2023-06-14T13:42:41;25.00;99.90
63313;DHT22;49442;45.640;13.812;2023-06-14T13:45:08;25.00;99.90
63313;DHT22;49442;45.640;13.812;2023-06-14T13:47:34;25.00;99.90
63313;DHT22;49442;45.640;13.812;2023-06-14T13:50:00;25.00;99.90
63313;DHT22;49442;45.640;13.812;2023-06-14T13:52:25;25.10;99.60
63313;DHT22;49442;45.640;13.812;2023-06-14T13:54:51;25.20;97.80
63313;DHT22;49442;45.640;13.812;2023-06-14T13:57:18;25.30;99.20
63313;DHT22;49442;45.640;13.812;2023-06-14T13:59:44;25.60;98.90
63313;DHT22;49442;45.640;13.812;2023-06-14T14:02:13;25.80;99.90
63313;DHT22;49442;45.640;13.812;2023-06-14T14:04:40;25.80;99.30
63313;DHT22;49442;45.640;13.812;2023-06-14T14:07:07;25.70;99.90
63313;DHT22;49442;45.640;13.812;2023-06-14T14:09:34;25.50;99.90
63313;DHT22;49442;45.640;13.812;2023-06-14T14:12:03;25.40;99.90
63313;DHT22;49442;45.640;13.812;2023-06-14T14:14:31;25.30;99.60
63313;DHT22;49442;45.640;13.812;2023-06-14T14:16:57;25.20;98.90
63313;DHT22;49442;45.640;13.812;2023-06-14T14:19:23;25.30;99.30
63313;DHT22;49442;45.640;13.812;2023-06-14T14:21:49;25.40;99.90
63313;DHT22;49442;45.640;13.812;2023-06-14T14:24:15;25.60;98.00
63313;DHT22;49442;45.640;13.812;2023-06-14T14:26:41;25.70;97.50
63313;DHT22;49442;45.640;13.812;2023-06-14T14:29:08;25.80;97.70
63313;DHT22;49442;45.640;13.812;2023-06-14T14:31:34;26.00;97.80
63313;DHT22;49442;45.640;13.812;2023-06-14T14:34:00;26.10;98.10
63313;DHT22;49442;45.640;13.812;2023-06-14T14:36:25;26.10;98.90
63313;DHT22;49442;45.640;13.812;2023-06-14T14:38:51;26.20;98.20
63313;DHT22;49442;45.640;13.812;2023-06-14T14:41:17;26.10;99.40
63313;DHT22;49442;45.640;13.812;2023-06-14T14:43:43;26.10;99.90
63313;DHT22;49442;45.640;13.812;2023-06-14T14:46:08;25.90;98.30
63313;DHT22;49442;45.640;13.812;2023-06-14T14:48:35;25.80;97.80
63313;DHT22;49442;45.640;13.812;2023-06-14T14:51:00;25.70;98.50
63313;DHT22;49442;45.640;13.812;2023-06-14T14:53:28;25.60;97.70
63313;DHT22;49442;45.640;13.812;2023-06-14T14:55:53;25.50;98.80
63313;DHT22;49442;45.640;13.812;2023-06-14T14:58:19;25.40;98.20
63313;DHT22;49442;45.640;13.812;2023-06-14T15:00:48;25.30;98.10
63313;DHT22;49442;45.640;13.812;2023-06-14T15:03:14;25.30;98.20
63313;DHT22;49442;45.640;13.812;2023-06-14T15:05:40;25.20;98.00
63313;DHT22;49442;45.640;13.812;2023-06-14T15:08:06;25.20;98.50
63313;DHT22;49442;45.640;13.812;2023-06-14T15:10:41;25.20;99.90
63313;DHT22;49442;45.640;13.812;2023-06-14T15:13:10;25.30;99.90
63313;DHT22;49442;45.640;13.812;2023-06-14T15:15:36;25.40;99.80
63313;DHT22;49442;45.640;13.812;2023-06-14T15:18:03;25.60;97.30
63313;DHT22;49442;45.640;13.812;2023-06-14T15:20:29;25.70;96.50
63313;DHT22;49442;45.640;13.812;2023-06-14T15:22:55;25.80;96.40
63313;DHT22;49442;45.640;13.812;2023-06-14T15:25:28;25.80;97.10
63313;DHT22;49442;45.640;13.812;2023-06-14T15:27:54;25.80;97.60
63313;DHT22;49442;45.640;13.812;2023-06-14T15:30:20;25.80;96.50
63313;DHT22;49442;45.640;13.812;2023-06-14T15:32:46;25.80;97.50
63313;DHT22;49442;45.640;13.812;2023-06-14T15:35:11;25.80;97.00
63313;DHT22;49442;45.640;13.812;2023-06-14T15:37:37;25.80;97.20